createdAt,value
2018-05-13T00:00:12.520Z,10.80
2018-05-13T00:02:40.186Z,10.90
2018-05-13T00:05:07.761Z,9.87
2018-05-13T00:07:36.711Z,10.20
2018-05-13T00:10:04.273Z,10.27
2018-05-13T00:12:31.834Z,9.60
2018-05-13T00:15:00.703Z,9.23
2018-05-13T00:17:28.645Z,10.10
2018-05-13T00:19:56.138Z,9.77
2018-05-13T00:22:23.681Z,9.90
2018-05-13T00:24:51.216Z,10.53
2018-05-13T00:27:18.896Z,10.27
2018-05-13T00:29:46.457Z,10.70
2018-05-13T00:32:14.637Z,12.90
2018-05-13T00:34:42.509Z,11.27
2018-05-13T00:37:10.813Z,12.40
2018-05-13T00:39:38.415Z,11.27
2018-05-13T00:42:06.801Z,11.47
2018-05-13T00:44:34.761Z,12.10
2018-05-13T00:47:03.397Z,12.20
2018-05-13T00:49:30.954Z,12.43
2018-05-13T00:51:58.443Z,12.60
2018-05-13T00:54:37.746Z,12.70
2018-05-13T00:57:05.293Z,12.73
2018-05-13T00:59:32.804Z,11.57
2018-05-13T01:02:00.338Z,12.47
2018-05-13T01:04:27.988Z,12.17
2018-05-13T01:06:55.487Z,12.57
2018-05-13T01:09:23.781Z,12.30
2018-05-13T01:11:51.950Z,12.30
2018-05-13T01:14:19.494Z,11.27
2018-05-13T01:16:48.610Z,11.80
2018-05-13T01:19:16.128Z,12.77
2018-05-13T01:21:43.661Z,11.40
2018-05-13T01:24:12.602Z,11.80
2018-05-13T01:26:41.081Z,10.93
2018-05-13T01:29:08.607Z,10.10
2018-05-13T01:31:36.164Z,10.17
2018-05-13T01:34:03.671Z,8.70
2018-05-13T01:36:31.204Z,10.33
2018-05-13T01:38:59.513Z,9.20
2018-05-13T01:41:26.974Z,9.43
2018-05-13T01:43:54.453Z,8.17
2018-05-13T01:46:21.929Z,8.20
2018-05-13T01:48:49.429Z,8.07
2018-05-13T01:51:17.640Z,8.27
2018-05-13T01:53:45.127Z,10.40
2018-05-13T01:56:12.579Z,10.90
2018-05-13T01:58:40.092Z,11.13
2018-05-13T02:01:07.586Z,11.73
2018-05-13T02:03:35.047Z,12.40
2018-05-13T02:06:02.529Z,13.33
2018-05-13T02:08:29.986Z,13.40
2018-05-13T02:10:57.470Z,14.47
2018-05-13T02:13:25.697Z,14.30
2018-05-13T02:15:53.186Z,16.17
2018-05-13T02:18:21.419Z,17.27
2018-05-13T02:20:48.878Z,17.50
2018-05-13T02:23:16.383Z,18.10
2018-05-13T02:25:44.615Z,18.90
2018-05-13T02:28:12.072Z,17.37
2018-05-13T02:30:39.554Z,19.37
2018-05-13T02:33:07.032Z,19.43
2018-05-13T02:35:35.269Z,19.63
2018-05-13T02:38:02.762Z,19.60
2018-05-13T02:40:31.042Z,21.73
2018-05-13T02:42:59.271Z,19.73
2018-05-13T02:45:26.753Z,19.30
2018-05-13T02:47:54.208Z,20.03
2018-05-13T02:50:21.691Z,19.10
2018-05-13T02:52:49.973Z,20.37
2018-05-13T02:55:18.205Z,19.10
2018-05-13T02:57:45.695Z,20.00
2018-05-13T03:00:13.165Z,20.00
2018-05-13T03:02:41.402Z,19.17
2018-05-13T03:05:08.877Z,19.57
2018-05-13T03:07:36.372Z,18.80
2018-05-13T03:10:03.842Z,18.70
2018-05-13T03:12:31.306Z,18.80
2018-05-13T03:14:58.793Z,20.53
2018-05-13T03:17:26.281Z,19.03
2018-05-13T03:19:54.511Z,20.40
2018-05-13T03:22:21.981Z,20.00
2018-05-13T03:24:49.420Z,19.83
2018-05-13T03:27:16.940Z,21.40
2018-05-13T03:29:44.422Z,21.13
2018-05-13T03:32:11.903Z,21.70
2018-05-13T03:34:39.394Z,22.67
2018-05-13T03:37:06.900Z,21.90
2018-05-13T03:39:34.369Z,22.03
2018-05-13T03:42:01.868Z,21.57
2018-05-13T03:44:29.368Z,20.87
2018-05-13T03:46:56.850Z,20.40
2018-05-13T03:49:24.337Z,19.53
2018-05-13T03:51:51.809Z,19.57
2018-05-13T03:54:20.064Z,18.90
2018-05-13T03:56:47.559Z,20.20
2018-05-13T03:59:15.044Z,19.17
2018-05-13T04:01:42.557Z,19.23
2018-05-13T04:04:09.988Z,18.90
2018-05-13T04:06:37.445Z,18.17
2018-05-13T04:12:16.662Z,18.10
2018-05-13T04:14:56.061Z,16.40
2018-05-13T04:17:24.280Z,16.43
2018-05-13T04:19:51.765Z,16.67
2018-05-13T04:22:19.245Z,16.67
2018-05-13T04:24:47.465Z,16.60
2018-05-13T04:27:14.958Z,15.97
2018-05-13T04:29:42.451Z,16.50
2018-05-13T04:32:09.954Z,14.77
2018-05-13T04:34:37.416Z,14.03
2018-05-13T04:37:04.900Z,15.30
2018-05-13T04:39:32.395Z,14.70
2018-05-13T04:41:59.936Z,14.90
2018-05-13T04:44:28.152Z,13.83
2018-05-13T04:46:55.617Z,13.33
2018-05-13T04:49:23.854Z,12.63
2018-05-13T04:51:51.310Z,14.03
2018-05-13T04:54:19.540Z,12.80
2018-05-13T04:56:47.006Z,12.73
2018-05-13T04:59:14.518Z,13.50
2018-05-13T05:01:41.975Z,14.40
2018-05-13T05:04:09.460Z,13.33
2018-05-13T05:06:36.913Z,12.83
2018-05-13T05:09:04.383Z,12.20
2018-05-13T05:11:31.845Z,13.27
2018-05-13T05:13:59.316Z,13.27
2018-05-13T05:16:26.836Z,12.90
2018-05-13T05:18:54.289Z,12.93
2018-05-13T05:21:21.770Z,13.70
2018-05-13T05:23:49.301Z,13.03
2018-05-13T05:26:16.759Z,13.40
2018-05-13T05:28:44.259Z,13.07
2018-05-13T05:31:11.733Z,13.70
2018-05-13T05:33:39.964Z,14.00
2018-05-13T05:36:07.465Z,13.17
2018-05-13T05:38:35.707Z,13.60
2018-05-13T05:41:03.168Z,12.80
2018-05-13T05:43:30.658Z,12.80
2018-05-13T05:45:58.114Z,13.90
2018-05-13T05:48:25.698Z,14.30
2018-05-13T05:50:53.105Z,13.77
2018-05-13T05:53:20.904Z,14.27
2018-05-13T05:55:48.378Z,14.50
2018-05-13T05:58:15.871Z,14.07
2018-05-13T06:00:43.331Z,14.13
2018-05-13T06:03:10.856Z,14.20
2018-05-13T06:05:38.277Z,14.80
2018-05-13T06:08:05.848Z,14.30
2018-05-13T06:10:33.360Z,14.20
2018-05-13T06:13:00.852Z,14.30
2018-05-13T06:15:28.370Z,14.17
2018-05-13T06:17:55.850Z,14.40
2018-05-13T06:20:23.377Z,14.40
2018-05-13T06:22:50.852Z,15.17
2018-05-13T06:25:18.655Z,13.93
2018-05-13T06:27:46.157Z,16.40
2018-05-13T06:30:13.681Z,15.70
2018-05-13T06:32:41.121Z,15.63
2018-05-13T06:35:08.617Z,16.07
2018-05-13T06:37:36.926Z,15.83
2018-05-13T06:40:04.410Z,15.80
2018-05-13T06:42:31.904Z,16.40
2018-05-13T06:44:59.451Z,16.03
2018-05-13T06:47:27.710Z,16.23
2018-05-13T06:49:55.205Z,16.20
2018-05-13T06:52:22.698Z,16.80
2018-05-13T06:54:50.342Z,15.80
2018-05-13T06:57:17.886Z,15.10
2018-05-13T06:59:45.312Z,14.73
2018-05-13T07:02:12.809Z,16.70
2018-05-13T07:04:40.414Z,15.80
2018-05-13T07:07:07.928Z,15.73
2018-05-13T07:09:35.389Z,14.60
2018-05-13T07:12:02.865Z,14.80
2018-05-13T07:14:30.407Z,16.07
2018-05-13T07:16:57.892Z,16.57
2018-05-13T07:19:25.406Z,15.20
2018-05-13T07:21:52.943Z,15.27
2018-05-13T07:24:21.218Z,14.57
2018-05-13T07:26:49.467Z,15.57
2018-05-13T07:29:16.959Z,15.70
2018-05-13T07:31:45.225Z,15.57
2018-05-13T07:34:13.492Z,15.43
2018-05-13T07:36:40.985Z,14.73
2018-05-13T07:39:08.462Z,14.83
2018-05-13T07:41:35.997Z,14.10
2018-05-13T07:44:04.225Z,15.90
2018-05-13T07:46:31.718Z,14.40
2018-05-13T07:49:00.046Z,14.50
2018-05-13T07:51:27.525Z,13.77
2018-05-13T07:53:55.009Z,14.53
2018-05-13T07:56:22.533Z,14.33
2018-05-13T07:58:50.002Z,14.77
2018-05-13T08:01:17.531Z,15.20
2018-05-13T08:03:45.000Z,15.90
2018-05-13T08:06:12.571Z,15.53
2018-05-13T08:08:39.980Z,15.77
2018-05-13T08:11:07.471Z,15.30
2018-05-13T08:13:34.952Z,15.87
2018-05-13T08:16:02.418Z,14.63
2018-05-13T08:18:30.684Z,15.97
2018-05-13T08:20:58.144Z,14.50
2018-05-13T08:23:25.589Z,14.83
2018-05-13T08:25:53.085Z,14.37
2018-05-13T08:28:21.297Z,15.00
2018-05-13T08:30:48.800Z,14.03
2018-05-13T08:33:16.251Z,13.33
2018-05-13T08:35:43.731Z,14.77
2018-05-13T08:38:11.962Z,14.27
2018-05-13T08:40:39.430Z,13.97
2018-05-13T08:43:06.917Z,14.47
2018-05-13T08:45:35.174Z,14.50
2018-05-13T08:48:02.639Z,15.40
2018-05-13T08:50:30.923Z,13.87
2018-05-13T08:52:59.166Z,15.33
2018-05-13T08:55:27.510Z,14.60
2018-05-13T08:57:54.962Z,15.30
2018-05-13T09:00:22.531Z,15.20
2018-05-13T09:02:50.025Z,16.30
2018-05-13T09:05:17.532Z,16.50
2018-05-13T09:07:44.979Z,15.30
2018-05-13T09:10:13.237Z,15.10
2018-05-13T09:12:41.520Z,15.60
2018-05-13T09:15:09.791Z,17.23
2018-05-13T09:17:37.288Z,18.93
2018-05-13T09:20:04.784Z,17.00
2018-05-13T09:22:32.262Z,15.57
2018-05-13T09:25:00.526Z,15.00
2018-05-13T09:27:27.981Z,13.97
2018-05-13T09:29:55.487Z,14.00
2018-05-13T09:32:22.964Z,14.23
2018-05-13T09:34:50.552Z,13.63
2018-05-13T09:37:18.054Z,13.20
2018-05-13T09:39:45.545Z,12.20
2018-05-13T09:42:13.021Z,12.40
2018-05-13T09:44:40.491Z,12.40
2018-05-13T09:47:07.973Z,13.40
2018-05-13T09:49:36.265Z,13.50
2018-05-13T09:52:03.780Z,13.03
2018-05-13T09:54:31.233Z,13.00
2018-05-13T09:56:58.839Z,13.10
2018-05-13T09:59:27.087Z,13.50
2018-05-13T10:01:54.703Z,12.00
2018-05-13T10:04:22.218Z,11.80
2018-05-13T10:06:50.498Z,12.07
2018-05-13T10:09:18.758Z,11.23
2018-05-13T10:11:46.247Z,12.17
2018-05-13T10:14:13.717Z,12.47
2018-05-13T10:16:41.197Z,11.27
2018-05-13T10:19:08.661Z,12.47
2018-05-13T10:21:36.160Z,12.10
2018-05-13T10:24:04.398Z,12.40
2018-05-13T10:26:31.882Z,11.93
2018-05-13T10:28:59.355Z,11.77
2018-05-13T10:31:27.597Z,12.37
2018-05-13T10:33:55.081Z,12.77
2018-05-13T10:36:23.356Z,14.03
2018-05-13T10:38:51.370Z,13.70
2018-05-13T10:41:18.986Z,13.00
2018-05-13T10:43:47.241Z,14.47
2018-05-13T10:46:14.739Z,14.73
2018-05-13T10:48:42.293Z,15.17
2018-05-13T10:51:09.921Z,14.83
2018-05-13T10:53:37.614Z,14.27
2018-05-13T10:56:06.209Z,15.30
2018-05-13T10:58:33.732Z,14.30
2018-05-13T11:01:01.244Z,14.77
2018-05-13T11:03:28.730Z,15.40
2018-05-13T11:05:56.955Z,16.70
2018-05-13T11:08:24.449Z,16.70
2018-05-13T11:10:51.906Z,16.40
2018-05-13T11:13:19.375Z,17.20
2018-05-13T11:15:46.848Z,16.90
2018-05-13T11:18:14.310Z,17.90
2018-05-13T11:20:41.810Z,16.70
2018-05-13T11:23:09.253Z,16.10
2018-05-13T11:25:37.506Z,16.40
2018-05-13T11:28:04.969Z,17.17
2018-05-13T11:30:33.207Z,17.30
2018-05-13T11:33:00.669Z,16.60
2018-05-13T11:35:28.149Z,17.00
2018-05-13T11:37:55.632Z,18.13
2018-05-13T11:40:23.094Z,16.47
2018-05-13T11:42:50.561Z,16.60
2018-05-13T11:45:18.044Z,15.80
2018-05-13T11:47:45.564Z,16.50
2018-05-13T11:50:13.766Z,17.20
2018-05-13T11:52:41.250Z,15.53
2018-05-13T11:55:08.748Z,15.10
2018-05-13T11:57:36.988Z,15.60
2018-05-13T12:00:04.449Z,16.57
2018-05-13T12:02:32.005Z,16.67
2018-05-13T12:04:59.390Z,15.83
2018-05-13T12:07:27.680Z,15.50
2018-05-13T12:09:55.906Z,16.27
2018-05-13T12:12:23.380Z,15.40
2018-05-13T12:14:50.881Z,16.87
2018-05-13T12:17:18.325Z,15.67
2018-05-13T12:19:45.807Z,15.40
2018-05-13T12:22:13.276Z,16.30
2018-05-13T12:24:40.757Z,15.80
2018-05-13T12:27:08.228Z,16.30
2018-05-13T12:29:35.743Z,17.80
2018-05-13T12:32:03.228Z,16.57
2018-05-13T12:34:30.670Z,15.97
2018-05-13T12:36:58.182Z,17.37
2018-05-13T12:39:26.449Z,16.33
2018-05-13T12:41:53.896Z,19.43
2018-05-13T12:44:21.410Z,18.80
2018-05-13T12:46:48.889Z,20.77
2018-05-13T12:49:16.373Z,22.90
2018-05-13T12:51:43.871Z,16.83
2018-05-13T12:54:11.349Z,15.20
2018-05-13T12:56:38.874Z,15.93
2018-05-13T12:59:06.320Z,16.33
2018-05-13T13:01:34.585Z,15.77
2018-05-13T13:04:02.050Z,14.80
2018-05-13T13:06:30.309Z,15.63
2018-05-13T13:08:57.782Z,15.33
2018-05-13T13:11:26.029Z,15.10
2018-05-13T13:13:53.529Z,15.00
2018-05-13T13:16:21.768Z,14.40
2018-05-13T13:18:49.216Z,17.63
2018-05-13T13:21:16.687Z,14.97
2018-05-13T13:23:44.287Z,14.80
2018-05-13T13:26:12.504Z,15.20
2018-05-13T13:28:39.966Z,14.10
2018-05-13T13:31:07.453Z,14.00
2018-05-13T13:33:35.699Z,14.47
2018-05-13T13:36:03.182Z,14.23
2018-05-13T13:38:31.401Z,13.57
2018-05-13T13:40:58.869Z,14.53
2018-05-13T13:43:26.352Z,13.43
2018-05-13T13:45:53.832Z,13.47
2018-05-13T13:48:22.105Z,13.23
2018-05-13T13:50:50.353Z,13.60
2018-05-13T13:53:17.845Z,13.03
2018-05-13T13:55:46.104Z,13.30
2018-05-13T13:58:13.595Z,12.73
2018-05-13T14:00:41.828Z,12.37
2018-05-13T14:03:09.415Z,13.50
2018-05-13T14:05:37.658Z,12.33
2018-05-13T14:08:05.156Z,13.20
2018-05-13T14:10:33.398Z,13.57
2018-05-13T14:13:00.900Z,13.10
2018-05-13T14:15:29.168Z,12.50
2018-05-13T14:17:57.416Z,12.93
2018-05-13T14:20:24.987Z,12.63
2018-05-13T14:22:52.392Z,13.10
2018-05-13T14:25:19.889Z,12.80
2018-05-13T14:27:47.380Z,13.77
2018-05-13T14:30:15.652Z,13.17
2018-05-13T14:32:43.902Z,12.53
2018-05-13T14:35:11.395Z,12.00
2018-05-13T14:37:38.873Z,12.47
2018-05-13T14:40:06.353Z,12.50
2018-05-13T14:42:33.824Z,13.13
2018-05-13T14:45:01.352Z,12.53
2018-05-13T14:47:28.848Z,12.30
2018-05-13T14:49:56.320Z,13.67
2018-05-13T14:52:24.544Z,11.40
2018-05-13T14:54:52.057Z,12.07
2018-05-13T14:57:19.521Z,12.03
2018-05-13T14:59:47.761Z,11.83
2018-05-13T15:02:15.246Z,12.23
2018-05-13T15:04:43.480Z,11.77
2018-05-13T15:07:11.009Z,12.80
2018-05-13T15:09:38.456Z,12.27
2018-05-13T15:12:05.936Z,12.23
2018-05-13T15:14:33.400Z,12.10
2018-05-13T15:17:00.876Z,12.07
2018-05-13T15:19:28.351Z,12.73
2018-05-13T15:21:55.842Z,12.53
2018-05-13T15:24:23.325Z,15.10
2018-05-13T15:26:50.838Z,15.30
2018-05-13T15:29:19.074Z,14.57
2018-05-13T15:31:46.581Z,11.93
2018-05-13T15:34:14.834Z,14.13
2018-05-13T15:36:42.305Z,13.00
2018-05-13T15:39:09.773Z,13.00
2018-05-13T15:41:37.249Z,13.93
2018-05-13T15:44:04.749Z,13.70
2018-05-13T15:46:32.250Z,13.40
2018-05-13T15:48:59.923Z,11.87
2018-05-13T15:51:27.408Z,13.17
2018-05-13T15:53:54.924Z,13.17
2018-05-13T15:56:23.149Z,11.40
2018-05-13T15:58:50.650Z,13.37
2018-05-13T16:01:18.185Z,12.13
2018-05-13T16:03:45.694Z,12.00
2018-05-13T16:06:13.168Z,12.30
2018-05-13T16:08:40.656Z,12.20
2018-05-13T16:11:08.153Z,11.50
2018-05-13T16:13:36.365Z,12.53
2018-05-13T16:16:03.897Z,13.03
2018-05-13T16:18:31.375Z,11.67
2018-05-13T16:20:59.653Z,11.70
2018-05-13T16:23:27.188Z,11.80
2018-05-13T16:25:54.751Z,12.07
2018-05-13T16:28:22.322Z,12.50
2018-05-13T16:30:49.852Z,12.80
2018-05-13T16:33:18.286Z,12.67
2018-05-13T16:35:46.516Z,12.17
2018-05-13T16:38:14.800Z,12.50
2018-05-13T16:40:42.354Z,14.13
2018-05-13T16:43:10.589Z,13.07
2018-05-13T16:45:38.122Z,12.93
2018-05-13T16:48:05.629Z,14.07
2018-05-13T16:50:33.893Z,14.40
2018-05-13T16:53:01.454Z,27.83
2018-05-13T16:55:29.163Z,19.50
2018-05-13T16:57:56.695Z,18.97
2018-05-13T17:00:24.934Z,14.30
2018-05-13T17:02:52.401Z,14.53
2018-05-13T17:05:19.939Z,14.00
2018-05-13T17:07:47.470Z,10.50
2018-05-13T17:10:14.972Z,11.77
2018-05-13T17:12:42.457Z,9.20
2018-05-13T17:15:10.876Z,9.83
2018-05-13T17:17:38.625Z,8.80
2018-05-13T17:20:06.137Z,8.80
2018-05-13T17:22:33.613Z,8.40
2018-05-13T17:25:01.963Z,8.03
2018-05-13T17:27:30.022Z,9.73
2018-05-13T17:29:57.638Z,8.80
2018-05-13T17:32:25.146Z,7.63
2018-05-13T17:34:52.627Z,7.13
2018-05-13T17:37:20.435Z,7.50
2018-05-13T17:39:48.724Z,7.83
2018-05-13T17:42:16.222Z,8.10
2018-05-13T17:44:43.699Z,6.10
2018-05-13T17:47:11.959Z,6.13
2018-05-13T17:49:39.464Z,6.40
2018-05-13T17:52:07.765Z,6.60
2018-05-13T17:54:35.262Z,6.00
2018-05-13T17:57:03.562Z,6.20
2018-05-13T17:59:31.892Z,5.57
2018-05-13T18:01:59.456Z,5.30
2018-05-13T18:04:26.911Z,5.20
2018-05-13T18:06:54.442Z,5.13
2018-05-13T18:09:22.015Z,5.50
2018-05-13T18:11:49.477Z,6.87
2018-05-13T18:14:16.944Z,5.30
2018-05-13T18:16:44.501Z,5.10
2018-05-13T18:19:11.990Z,5.10
2018-05-13T18:21:39.551Z,5.30
2018-05-13T18:24:07.843Z,5.70
2018-05-13T18:26:35.355Z,6.33
2018-05-13T18:29:03.110Z,6.07
2018-05-13T18:31:30.625Z,5.00
2018-05-13T18:33:58.162Z,4.40
2018-05-13T18:36:26.473Z,5.30
2018-05-13T18:38:54.167Z,4.53
2018-05-13T18:41:21.551Z,5.40
2018-05-13T18:43:49.040Z,5.43
2018-05-13T18:46:16.537Z,6.43
2018-05-13T18:48:44.038Z,6.40
2018-05-13T18:51:12.263Z,6.47
2018-05-13T18:53:39.818Z,5.60
2018-05-13T18:56:07.459Z,4.60
2018-05-13T18:58:34.997Z,5.80
2018-05-13T19:01:03.223Z,6.13
2018-05-13T19:03:31.158Z,6.00
2018-05-13T19:05:58.621Z,6.13
2018-05-13T19:08:26.089Z,5.53
2018-05-13T19:10:53.542Z,5.37
2018-05-13T19:13:21.118Z,5.63
2018-05-13T19:15:48.656Z,5.40
2018-05-13T19:18:16.161Z,6.07
2018-05-13T19:20:43.646Z,5.10
2018-05-13T19:23:11.985Z,5.43
2018-05-13T19:25:39.696Z,4.90
2018-05-13T19:28:07.937Z,5.30
2018-05-13T19:30:35.418Z,5.10
2018-05-13T19:33:03.634Z,5.93
2018-05-13T19:35:31.529Z,6.50
2018-05-13T19:37:59.130Z,6.30
2018-05-13T19:40:27.365Z,6.30
2018-05-13T19:42:54.861Z,6.50
2018-05-13T19:45:23.172Z,6.23
2018-05-13T19:47:50.871Z,5.30
2018-05-13T19:50:19.489Z,6.40
2018-05-13T19:52:47.364Z,5.97
2018-05-13T19:55:14.869Z,6.03
2018-05-13T19:57:42.701Z,6.60
2018-05-13T20:00:10.240Z,6.70
2018-05-13T20:02:38.532Z,6.50
2018-05-13T20:05:05.950Z,5.80
2018-05-13T20:07:34.201Z,10.23
2018-05-13T20:10:01.764Z,18.27
2018-05-13T20:12:29.250Z,9.77
2018-05-13T20:14:57.504Z,6.90
2018-05-13T20:17:24.977Z,6.70
2018-05-13T20:19:52.496Z,7.33
2018-05-13T20:22:19.957Z,7.57
2018-05-13T20:24:47.436Z,7.97
2018-05-13T20:27:14.875Z,7.33
2018-05-13T20:29:42.387Z,7.80
2018-05-13T20:32:09.887Z,7.63
2018-05-13T20:34:37.352Z,8.00
2018-05-13T20:37:04.841Z,8.13
2018-05-13T20:39:33.080Z,7.13
2018-05-13T20:42:00.569Z,8.27
2018-05-13T20:44:28.030Z,10.40
2018-05-13T20:46:55.506Z,12.00
2018-05-13T20:49:23.757Z,8.30
2018-05-13T20:51:51.233Z,8.50
2018-05-13T20:54:19.462Z,8.67
2018-05-13T20:56:46.953Z,8.00
2018-05-13T20:59:14.440Z,14.77
2018-05-13T21:01:41.921Z,15.07
2018-05-13T21:04:10.173Z,9.20
2018-05-13T21:06:37.628Z,7.80
2018-05-13T21:09:05.869Z,7.57
2018-05-13T21:11:33.370Z,6.70
2018-05-13T21:14:00.826Z,7.10
2018-05-13T21:16:28.288Z,7.53
2018-05-13T21:18:55.801Z,7.20
2018-05-13T21:21:23.265Z,7.73
2018-05-13T21:23:50.749Z,6.90
2018-05-13T21:26:18.217Z,7.00
2018-05-13T21:28:45.695Z,6.53
2018-05-13T21:31:13.145Z,6.80
2018-05-13T21:33:40.647Z,6.50
2018-05-13T21:36:08.121Z,6.87
2018-05-13T21:38:36.384Z,6.23
2018-05-13T21:41:03.854Z,6.60
2018-05-13T21:43:32.073Z,7.40
2018-05-13T21:45:59.578Z,7.30
2018-05-13T21:48:27.015Z,8.10
2018-05-13T21:50:54.456Z,7.70
2018-05-13T21:53:21.922Z,8.23
2018-05-13T21:55:49.398Z,8.40
2018-05-13T21:58:16.867Z,7.20
2018-05-13T22:00:44.354Z,7.03
2018-05-13T22:03:11.806Z,7.50
2018-05-13T22:05:39.254Z,7.80
2018-05-13T22:08:06.711Z,7.90
2018-05-13T22:10:34.930Z,8.17
2018-05-13T22:13:02.440Z,8.70
2018-05-13T22:15:30.667Z,7.77
2018-05-13T22:17:58.148Z,8.17
2018-05-13T22:20:25.616Z,8.37
2018-05-13T22:22:53.081Z,8.77
2018-05-13T22:25:21.321Z,8.47
2018-05-13T22:27:48.823Z,7.33
2018-05-13T22:30:17.046Z,7.70
2018-05-13T22:32:44.536Z,7.50
2018-05-13T22:35:11.983Z,7.20
2018-05-13T22:37:39.453Z,6.77
2018-05-13T22:40:06.947Z,6.83
2018-05-13T22:42:34.415Z,6.53
2018-05-13T22:45:01.939Z,6.93
2018-05-13T22:47:29.366Z,6.47
2018-05-13T22:49:56.832Z,6.20
2018-05-13T22:52:24.304Z,6.60
2018-05-13T22:54:51.796Z,6.43
2018-05-13T22:57:19.234Z,6.00
2018-05-13T22:59:47.474Z,6.00
2018-05-13T23:02:14.933Z,5.70
2018-05-13T23:04:42.425Z,6.03
2018-05-13T23:07:09.848Z,6.47
2018-05-13T23:09:37.371Z,6.03
2018-05-13T23:12:04.828Z,5.43
2018-05-13T23:14:32.292Z,6.20
2018-05-13T23:16:59.757Z,6.10
2018-05-13T23:19:27.216Z,5.97
2018-05-13T23:21:54.695Z,5.90
2018-05-13T23:24:22.152Z,6.17
2018-05-13T23:26:49.628Z,6.10
2018-05-13T23:29:17.073Z,5.83
2018-05-13T23:31:44.533Z,6.33
2018-05-13T23:34:12.001Z,6.37
2018-05-13T23:36:39.476Z,6.90
2018-05-13T23:39:06.941Z,7.37
2018-05-13T23:41:34.417Z,7.40
2018-05-13T23:44:01.871Z,7.30
2018-05-13T23:46:29.342Z,8.70
2018-05-13T23:48:56.820Z,8.43
2018-05-13T23:51:24.279Z,9.37
2018-05-13T23:53:51.771Z,8.83
2018-05-13T23:56:19.233Z,9.80
2018-05-13T23:58:46.687Z,10.00
